sensor_id;sensor_type;location;lat;lon;timestamp;P1;durP1;ratioP1;P2;durP2;ratioP2
10174;SDS011;18221;38.704;0.152;2024-03-08T00:00:02;9.97;;;4.87;;
10174;SDS011;18221;38.704;0.152;2024-03-08T00:02:35;15.13;;;5.47;;
10174;SDS011;18221;38.704;0.152;2024-03-08T00:05:03;18.00;;;5.50;;
10174;SDS011;18221;38.704;0.152;2024-03-08T00:07:33;19.17;;;4.97;;
10174;SDS011;18221;38.704;0.152;2024-03-08T00:10:01;14.67;;;5.37;;
10174;SDS011;18221;38.704;0.152;2024-03-08T00:12:30;13.97;;;6.07;;
10174;SDS011;18221;38.704;0.152;2024-03-08T00:14:58;16.67;;;6.17;;
10174;SDS011;18221;38.704;0.152;2024-03-08T00:17:27;15.47;;;5.97;;
10174;SDS011;18221;38.704;0.152;2024-03-08T00:19:55;19.83;;;6.70;;
10174;SDS011;18221;38.704;0.152;2024-03-08T00:22:22;12.57;;;5.10;;
10174;SDS011;18221;38.704;0.152;2024-03-08T00:24:50;19.67;;;6.73;;
10174;SDS011;18221;38.704;0.152;2024-03-08T00:27:18;18.53;;;7.23;;
10174;SDS011;18221;38.704;0.152;2024-03-08T00:29:46;15.73;;;7.43;;
10174;SDS011;18221;38.704;0.152;2024-03-08T00:32:14;17.90;;;6.00;;
10174;SDS011;18221;38.704;0.152;2024-03-08T00:34:44;15.87;;;6.70;;
10174;SDS011;18221;38.704;0.152;2024-03-08T00:37:12;15.07;;;6.60;;
10174;SDS011;18221;38.704;0.152;2024-03-08T00:39:40;18.57;;;6.97;;
10174;SDS011;18221;38.704;0.152;2024-03-08T00:42:08;18.67;;;7.50;;
10174;SDS011;18221;38.704;0.152;2024-03-08T00:44:36;24.10;;;7.63;;
10174;SDS011;18221;38.704;0.152;2024-03-08T00:47:05;18.57;;;7.10;;
10174;SDS011;18221;38.704;0.152;2024-03-08T00:49:33;16.60;;;6.20;;
10174;SDS011;18221;38.704;0.152;2024-03-08T01:02:25;16.07;;;6.03;;
10174;SDS011;18221;38.704;0.152;2024-03-08T01:04:54;14.97;;;5.23;;
10174;SDS011;18221;38.704;0.152;2024-03-08T01:07:22;14.77;;;6.03;;
10174;SDS011;18221;38.704;0.152;2024-03-08T01:09:50;12.53;;;5.67;;
10174;SDS011;18221;38.704;0.152;2024-03-08T01:12:17;14.57;;;5.47;;
10174;SDS011;18221;38.704;0.152;2024-03-08T01:14:45;13.50;;;5.80;;
10174;SDS011;18221;38.704;0.152;2024-03-08T01:17:13;14.57;;;6.50;;
10174;SDS011;18221;38.704;0.152;2024-03-08T01:19:42;14.27;;;6.67;;
10174;SDS011;18221;38.704;0.152;2024-03-08T01:22:10;12.07;;;6.13;;
10174;SDS011;18221;38.704;0.152;2024-03-08T01:24:39;21.03;;;8.37;;
10174;SDS011;18221;38.704;0.152;2024-03-08T01:27:07;16.63;;;6.10;;
10174;SDS011;18221;38.704;0.152;2024-03-08T01:29:35;14.47;;;6.10;;
10174;SDS011;18221;38.704;0.152;2024-03-08T01:32:03;15.33;;;6.20;;
10174;SDS011;18221;38.704;0.152;2024-03-08T01:34:32;12.20;;;6.20;;
10174;SDS011;18221;38.704;0.152;2024-03-08T01:37:01;22.57;;;6.50;;
10174;SDS011;18221;38.704;0.152;2024-03-08T01:39:29;13.10;;;5.80;;
10174;SDS011;18221;38.704;0.152;2024-03-08T01:41:57;13.87;;;5.87;;
10174;SDS011;18221;38.704;0.152;2024-03-08T01:44:26;15.07;;;6.00;;
10174;SDS011;18221;38.704;0.152;2024-03-08T01:46:55;14.97;;;6.80;;
10174;SDS011;18221;38.704;0.152;2024-03-08T01:49:23;14.87;;;6.57;;
10174;SDS011;18221;38.704;0.152;2024-03-08T01:51:53;11.23;;;5.20;;
10174;SDS011;18221;38.704;0.152;2024-03-08T01:54:24;11.73;;;6.20;;
10174;SDS011;18221;38.704;0.152;2024-03-08T01:56:53;20.33;;;6.40;;
10174;SDS011;18221;38.704;0.152;2024-03-08T01:59:21;19.77;;;6.80;;
10174;SDS011;18221;38.704;0.152;2024-03-08T02:01:53;13.13;;;6.03;;
10174;SDS011;18221;38.704;0.152;2024-03-08T02:04:27;14.07;;;6.10;;
10174;SDS011;18221;38.704;0.152;2024-03-08T02:06:57;14.50;;;5.43;;
10174;SDS011;18221;38.704;0.152;2024-03-08T02:09:26;12.57;;;5.60;;
10174;SDS011;18221;38.704;0.152;2024-03-08T02:11:55;13.27;;;6.03;;
10174;SDS011;18221;38.704;0.152;2024-03-08T02:14:24;15.17;;;6.07;;
10174;SDS011;18221;38.704;0.152;2024-03-08T02:16:52;13.77;;;5.93;;
10174;SDS011;18221;38.704;0.152;2024-03-08T02:19:26;15.43;;;5.87;;
10174;SDS011;18221;38.704;0.152;2024-03-08T02:21:56;15.73;;;5.80;;
10174;SDS011;18221;38.704;0.152;2024-03-08T02:24:24;17.97;;;5.90;;
10174;SDS011;18221;38.704;0.152;2024-03-08T02:26:52;16.27;;;6.63;;
10174;SDS011;18221;38.704;0.152;2024-03-08T02:29:21;14.03;;;6.03;;
10174;SDS011;18221;38.704;0.152;2024-03-08T02:31:50;12.90;;;5.73;;
10174;SDS011;18221;38.704;0.152;2024-03-08T02:34:21;15.13;;;5.57;;
10174;SDS011;18221;38.704;0.152;2024-03-08T02:36:48;15.97;;;5.37;;
10174;SDS011;18221;38.704;0.152;2024-03-08T02:39:18;15.03;;;5.63;;
10174;SDS011;18221;38.704;0.152;2024-03-08T02:41:47;14.50;;;6.13;;
10174;SDS011;18221;38.704;0.152;2024-03-08T02:44:15;11.63;;;5.60;;
10174;SDS011;18221;38.704;0.152;2024-03-08T02:46:42;14.93;;;6.20;;
10174;SDS011;18221;38.704;0.152;2024-03-08T02:49:10;13.47;;;6.40;;
10174;SDS011;18221;38.704;0.152;2024-03-08T02:51:38;13.63;;;5.83;;
10174;SDS011;18221;38.704;0.152;2024-03-08T02:54:06;15.10;;;5.97;;
10174;SDS011;18221;38.704;0.152;2024-03-08T02:56:36;13.90;;;5.70;;
10174;SDS011;18221;38.704;0.152;2024-03-08T02:59:04;18.37;;;6.03;;
10174;SDS011;18221;38.704;0.152;2024-03-08T03:01:33;12.43;;;5.17;;
10174;SDS011;18221;38.704;0.152;2024-03-08T03:04:01;11.63;;;4.70;;
10174;SDS011;18221;38.704;0.152;2024-03-08T03:06:29;13.70;;;4.53;;
10174;SDS011;18221;38.704;0.152;2024-03-08T03:08:56;14.07;;;4.17;;
10174;SDS011;18221;38.704;0.152;2024-03-08T03:11:24;11.73;;;3.90;;
10174;SDS011;18221;38.704;0.152;2024-03-08T03:13:54;4.83;;;3.40;;
10174;SDS011;18221;38.704;0.152;2024-03-08T03:16:21;8.67;;;3.43;;
10174;SDS011;18221;38.704;0.152;2024-03-08T03:18:49;12.23;;;3.60;;
10174;SDS011;18221;38.704;0.152;2024-03-08T03:21:17;5.97;;;3.00;;
10174;SDS011;18221;38.704;0.152;2024-03-08T03:23:45;5.80;;;2.70;;
10174;SDS011;18221;38.704;0.152;2024-03-08T03:26:13;6.27;;;2.63;;
10174;SDS011;18221;38.704;0.152;2024-03-08T03:28:42;4.30;;;1.90;;
10174;SDS011;18221;38.704;0.152;2024-03-08T03:31:11;5.50;;;2.13;;
10174;SDS011;18221;38.704;0.152;2024-03-08T03:33:40;5.40;;;2.00;;
10174;SDS011;18221;38.704;0.152;2024-03-08T03:36:08;5.03;;;1.83;;
10174;SDS011;18221;38.704;0.152;2024-03-08T03:38:37;3.07;;;2.17;;
10174;SDS011;18221;38.704;0.152;2024-03-08T03:41:05;5.80;;;2.20;;
10174;SDS011;18221;38.704;0.152;2024-03-08T03:43:35;2.87;;;1.90;;
10174;SDS011;18221;38.704;0.152;2024-03-08T03:46:05;4.70;;;2.00;;
10174;SDS011;18221;38.704;0.152;2024-03-08T03:48:37;3.30;;;2.13;;
10174;SDS011;18221;38.704;0.152;2024-03-08T03:51:05;4.47;;;1.87;;
10174;SDS011;18221;38.704;0.152;2024-03-08T03:53:33;3.47;;;1.60;;
10174;SDS011;18221;38.704;0.152;2024-03-08T03:56:00;3.17;;;1.80;;
10174;SDS011;18221;38.704;0.152;2024-03-08T03:58:32;3.90;;;2.07;;
10174;SDS011;18221;38.704;0.152;2024-03-08T04:01:00;2.17;;;1.60;;
10174;SDS011;18221;38.704;0.152;2024-03-08T04:03:28;3.63;;;1.50;;
10174;SDS011;18221;38.704;0.152;2024-03-08T04:05:58;3.23;;;1.80;;
10174;SDS011;18221;38.704;0.152;2024-03-08T04:08:26;2.47;;;1.70;;
10174;SDS011;18221;38.704;0.152;2024-03-08T04:10:54;2.67;;;1.50;;
10174;SDS011;18221;38.704;0.152;2024-03-08T04:13:23;2.43;;;1.60;;
10174;SDS011;18221;38.704;0.152;2024-03-08T04:15:51;6.17;;;1.70;;
10174;SDS011;18221;38.704;0.152;2024-03-08T04:18:19;3.70;;;1.47;;
10174;SDS011;18221;38.704;0.152;2024-03-08T04:20:47;1.73;;;1.13;;
10174;SDS011;18221;38.704;0.152;2024-03-08T04:23:17;2.07;;;1.30;;
10174;SDS011;18221;38.704;0.152;2024-03-08T04:25:44;3.13;;;1.50;;
10174;SDS011;18221;38.704;0.152;2024-03-08T04:28:12;2.03;;;1.30;;
10174;SDS011;18221;38.704;0.152;2024-03-08T04:30:42;3.80;;;1.47;;
10174;SDS011;18221;38.704;0.152;2024-03-08T04:33:11;2.40;;;1.63;;
10174;SDS011;18221;38.704;0.152;2024-03-08T04:35:43;5.67;;;1.90;;
10174;SDS011;18221;38.704;0.152;2024-03-08T04:38:12;1.83;;;1.53;;
10174;SDS011;18221;38.704;0.152;2024-03-08T04:40:42;1.90;;;1.10;;
10174;SDS011;18221;38.704;0.152;2024-03-08T04:43:10;1.37;;;1.10;;
10174;SDS011;18221;38.704;0.152;2024-03-08T04:45:39;2.00;;;1.07;;
10174;SDS011;18221;38.704;0.152;2024-03-08T04:48:09;2.80;;;1.27;;
10174;SDS011;18221;38.704;0.152;2024-03-08T04:50:36;1.17;;;1.00;;
10174;SDS011;18221;38.704;0.152;2024-03-08T04:53:05;1.10;;;1.00;;
10174;SDS011;18221;38.704;0.152;2024-03-08T04:55:33;1.80;;;1.00;;
10174;SDS011;18221;38.704;0.152;2024-03-08T04:58:04;1.63;;;0.90;;
10174;SDS011;18221;38.704;0.152;2024-03-08T05:00:32;1.67;;;1.00;;
10174;SDS011;18221;38.704;0.152;2024-03-08T05:03:00;2.47;;;1.03;;
10174;SDS011;18221;38.704;0.152;2024-03-08T05:05:29;1.60;;;1.10;;
10174;SDS011;18221;38.704;0.152;2024-03-08T05:07:58;2.07;;;1.10;;
10174;SDS011;18221;38.704;0.152;2024-03-08T05:10:26;2.73;;;1.10;;
10174;SDS011;18221;38.704;0.152;2024-03-08T05:12:54;0.80;;;0.80;;
10174;SDS011;18221;38.704;0.152;2024-03-08T05:15:24;1.20;;;1.00;;
10174;SDS011;18221;38.704;0.152;2024-03-08T05:17:52;1.43;;;1.33;;
10174;SDS011;18221;38.704;0.152;2024-03-08T05:20:21;1.23;;;0.93;;
10174;SDS011;18221;38.704;0.152;2024-03-08T05:22:49;1.20;;;0.90;;
10174;SDS011;18221;38.704;0.152;2024-03-08T05:25:17;2.10;;;0.90;;
10174;SDS011;18221;38.704;0.152;2024-03-08T05:27:45;0.80;;;0.70;;
10174;SDS011;18221;38.704;0.152;2024-03-08T05:30:13;1.23;;;0.80;;
10174;SDS011;18221;38.704;0.152;2024-03-08T05:32:43;1.13;;;0.87;;
10174;SDS011;18221;38.704;0.152;2024-03-08T05:35:11;1.00;;;0.90;;
10174;SDS011;18221;38.704;0.152;2024-03-08T05:37:41;1.00;;;0.90;;
10174;SDS011;18221;38.704;0.152;2024-03-08T05:40:10;0.80;;;0.80;;
10174;SDS011;18221;38.704;0.152;2024-03-08T05:42:38;0.90;;;0.90;;
10174;SDS011;18221;38.704;0.152;2024-03-08T05:45:06;0.73;;;0.73;;
10174;SDS011;18221;38.704;0.152;2024-03-08T05:47:36;1.80;;;1.00;;
10174;SDS011;18221;38.704;0.152;2024-03-08T05:50:07;2.23;;;0.90;;
10174;SDS011;18221;38.704;0.152;2024-03-08T05:52:36;0.93;;;0.80;;
10174;SDS011;18221;38.704;0.152;2024-03-08T05:55:04;1.23;;;1.03;;
10174;SDS011;18221;38.704;0.152;2024-03-08T05:57:35;1.10;;;0.90;;
10174;SDS011;18221;38.704;0.152;2024-03-08T06:00:05;0.90;;;0.80;;
10174;SDS011;18221;38.704;0.152;2024-03-08T06:02:36;1.57;;;0.90;;
10174;SDS011;18221;38.704;0.152;2024-03-08T06:05:08;1.27;;;0.90;;
10174;SDS011;18221;38.704;0.152;2024-03-08T06:07:37;1.03;;;0.80;;
10174;SDS011;18221;38.704;0.152;2024-03-08T06:10:06;1.43;;;0.93;;
10174;SDS011;18221;38.704;0.152;2024-03-08T06:12:38;0.90;;;0.90;;
10174;SDS011;18221;38.704;0.152;2024-03-08T06:15:07;1.87;;;0.90;;
10174;SDS011;18221;38.704;0.152;2024-03-08T06:17:39;1.33;;;1.00;;
10174;SDS011;18221;38.704;0.152;2024-03-08T06:20:09;2.23;;;0.90;;
10174;SDS011;18221;38.704;0.152;2024-03-08T06:22:38;1.93;;;0.97;;
10174;SDS011;18221;38.704;0.152;2024-03-08T06:25:07;0.83;;;0.80;;
10174;SDS011;18221;38.704;0.152;2024-03-08T06:27:39;1.27;;;0.90;;
10174;SDS011;18221;38.704;0.152;2024-03-08T06:30:08;1.63;;;1.00;;
10174;SDS011;18221;38.704;0.152;2024-03-08T06:32:37;0.80;;;0.80;;
10174;SDS011;18221;38.704;0.152;2024-03-08T06:35:05;3.13;;;0.90;;
10174;SDS011;18221;38.704;0.152;2024-03-08T06:37:36;2.67;;;1.13;;
10174;SDS011;18221;38.704;0.152;2024-03-08T06:40:05;1.23;;;0.90;;
10174;SDS011;18221;38.704;0.152;2024-03-08T06:42:38;0.93;;;0.87;;
10174;SDS011;18221;38.704;0.152;2024-03-08T06:45:07;0.70;;;0.70;;
10174;SDS011;18221;38.704;0.152;2024-03-08T06:47:35;2.17;;;1.00;;
10174;SDS011;18221;38.704;0.152;2024-03-08T06:50:03;1.17;;;0.90;;
10174;SDS011;18221;38.704;0.152;2024-03-08T06:52:34;0.80;;;0.80;;
10174;SDS011;18221;38.704;0.152;2024-03-08T06:55:04;1.43;;;0.90;;
10174;SDS011;18221;38.704;0.152;2024-03-08T06:57:35;1.37;;;1.00;;
10174;SDS011;18221;38.704;0.152;2024-03-08T07:00:04;1.43;;;1.00;;
10174;SDS011;18221;38.704;0.152;2024-03-08T07:02:35;1.00;;;0.80;;
10174;SDS011;18221;38.704;0.152;2024-03-08T07:05:05;2.00;;;0.90;;
10174;SDS011;18221;38.704;0.152;2024-03-08T07:07:37;0.90;;;0.90;;
10174;SDS011;18221;38.704;0.152;2024-03-08T07:10:06;1.37;;;0.90;;
10174;SDS011;18221;38.704;0.152;2024-03-08T07:12:36;0.77;;;0.70;;
10174;SDS011;18221;38.704;0.152;2024-03-08T07:15:04;1.13;;;0.97;;
10174;SDS011;18221;38.704;0.152;2024-03-08T07:17:34;3.20;;;1.00;;
10174;SDS011;18221;38.704;0.152;2024-03-08T07:20:02;1.00;;;0.87;;
10174;SDS011;18221;38.704;0.152;2024-03-08T07:22:37;0.80;;;0.80;;
10174;SDS011;18221;38.704;0.152;2024-03-08T07:25:06;1.37;;;1.10;;
10174;SDS011;18221;38.704;0.152;2024-03-08T07:27:45;4.27;;;1.07;;
10174;SDS011;18221;38.704;0.152;2024-03-08T07:30:14;3.03;;;1.17;;
10174;SDS011;18221;38.704;0.152;2024-03-08T07:33:02;2.27;;;0.93;;
10174;SDS011;18221;38.704;0.152;2024-03-08T07:35:32;2.37;;;1.00;;
10174;SDS011;18221;38.704;0.152;2024-03-08T07:38:04;2.97;;;1.13;;
10174;SDS011;18221;38.704;0.152;2024-03-08T07:40:35;2.20;;;1.10;;
10174;SDS011;18221;38.704;0.152;2024-03-08T07:43:05;2.30;;;1.00;;
10174;SDS011;18221;38.704;0.152;2024-03-08T07:45:33;1.20;;;0.90;;
10174;SDS011;18221;38.704;0.152;2024-03-08T07:48:02;2.10;;;1.07;;
10174;SDS011;18221;38.704;0.152;2024-03-08T07:50:35;1.10;;;0.80;;
10174;SDS011;18221;38.704;0.152;2024-03-08T07:53:05;0.87;;;0.83;;
10174;SDS011;18221;38.704;0.152;2024-03-08T07:55:34;2.27;;;1.07;;
10174;SDS011;18221;38.704;0.152;2024-03-08T07:58:03;2.00;;;0.93;;
10174;SDS011;18221;38.704;0.152;2024-03-08T08:00:31;1.10;;;0.87;;
10174;SDS011;18221;38.704;0.152;2024-03-08T08:02:59;3.70;;;1.17;;
10174;SDS011;18221;38.704;0.152;2024-03-08T08:05:27;1.73;;;1.00;;
10174;SDS011;18221;38.704;0.152;2024-03-08T08:07:57;3.40;;;1.27;;
10174;SDS011;18221;38.704;0.152;2024-03-08T08:10:26;1.73;;;1.00;;
10174;SDS011;18221;38.704;0.152;2024-03-08T08:12:54;2.43;;;1.03;;
10174;SDS011;18221;38.704;0.152;2024-03-08T08:15:22;1.67;;;1.00;;
10174;SDS011;18221;38.704;0.152;2024-03-08T08:17:50;2.43;;;1.37;;
10174;SDS011;18221;38.704;0.152;2024-03-08T08:20:18;2.93;;;1.00;;
10174;SDS011;18221;38.704;0.152;2024-03-08T08:22:47;2.10;;;1.20;;
10174;SDS011;18221;38.704;0.152;2024-03-08T08:25:14;1.63;;;0.87;;
10174;SDS011;18221;38.704;0.152;2024-03-08T08:27:47;2.37;;;1.00;;
10174;SDS011;18221;38.704;0.152;2024-03-08T08:30:15;2.97;;;1.10;;
10174;SDS011;18221;38.704;0.152;2024-03-08T08:32:42;2.27;;;1.10;;
10174;SDS011;18221;38.704;0.152;2024-03-08T08:35:12;4.13;;;1.07;;
10174;SDS011;18221;38.704;0.152;2024-03-08T08:37:40;3.40;;;0.93;;
10174;SDS011;18221;38.704;0.152;2024-03-08T08:40:09;1.73;;;0.80;;
10174;SDS011;18221;38.704;0.152;2024-03-08T08:42:39;3.03;;;1.10;;
10174;SDS011;18221;38.704;0.152;2024-03-08T08:45:09;1.43;;;1.10;;
10174;SDS011;18221;38.704;0.152;2024-03-08T08:47:38;3.13;;;1.07;;
10174;SDS011;18221;38.704;0.152;2024-03-08T08:50:08;2.50;;;1.20;;
10174;SDS011;18221;38.704;0.152;2024-03-08T08:52:37;1.53;;;1.07;;
10174;SDS011;18221;38.704;0.152;2024-03-08T08:55:05;6.47;;;1.17;;
10174;SDS011;18221;38.704;0.152;2024-03-08T08:57:33;1.03;;;0.93;;
10174;SDS011;18221;38.704;0.152;2024-03-08T09:00:01;3.03;;;1.20;;
10174;SDS011;18221;38.704;0.152;2024-03-08T09:02:33;3.07;;;1.10;;
10174;SDS011;18221;38.704;0.152;2024-03-08T09:05:02;3.23;;;1.10;;
10174;SDS011;18221;38.704;0.152;2024-03-08T09:07:31;1.90;;;1.00;;
10174;SDS011;18221;38.704;0.152;2024-03-08T09:09:59;3.90;;;1.10;;
10174;SDS011;18221;38.704;0.152;2024-03-08T09:12:27;2.00;;;1.00;;
10174;SDS011;18221;38.704;0.152;2024-03-08T09:14:57;3.17;;;1.40;;
10174;SDS011;18221;38.704;0.152;2024-03-08T09:17:26;2.50;;;1.40;;
10174;SDS011;18221;38.704;0.152;2024-03-08T09:19:55;4.07;;;1.50;;
10174;SDS011;18221;38.704;0.152;2024-03-08T09:22:23;1.37;;;1.00;;
10174;SDS011;18221;38.704;0.152;2024-03-08T09:24:50;4.33;;;1.20;;
10174;SDS011;18221;38.704;0.152;2024-03-08T09:27:18;3.30;;;1.10;;
10174;SDS011;18221;38.704;0.152;2024-03-08T09:29:46;2.30;;;0.90;;
10174;SDS011;18221;38.704;0.152;2024-03-08T09:32:14;1.60;;;0.90;;
10174;SDS011;18221;38.704;0.152;2024-03-08T09:34:42;2.43;;;1.00;;
10174;SDS011;18221;38.704;0.152;2024-03-08T09:37:12;1.13;;;0.83;;
10174;SDS011;18221;38.704;0.152;2024-03-08T09:39:39;1.57;;;1.00;;
10174;SDS011;18221;38.704;0.152;2024-03-08T09:42:07;1.87;;;1.00;;
10174;SDS011;18221;38.704;0.152;2024-03-08T09:44:36;0.90;;;0.90;;
10174;SDS011;18221;38.704;0.152;2024-03-08T09:47:05;3.30;;;1.10;;
10174;SDS011;18221;38.704;0.152;2024-03-08T09:49:33;1.97;;;1.00;;
10174;SDS011;18221;38.704;0.152;2024-03-08T09:52:02;2.47;;;0.90;;
10174;SDS011;18221;38.704;0.152;2024-03-08T09:54:32;2.30;;;1.23;;
10174;SDS011;18221;38.704;0.152;2024-03-08T09:57:01;3.90;;;1.07;;
10174;SDS011;18221;38.704;0.152;2024-03-08T09:59:33;1.53;;;0.90;;
10174;SDS011;18221;38.704;0.152;2024-03-08T10:02:14;1.10;;;1.00;;
10174;SDS011;18221;38.704;0.152;2024-03-08T10:04:44;2.03;;;1.00;;
10174;SDS011;18221;38.704;0.152;2024-03-08T10:07:12;2.00;;;1.00;;
10174;SDS011;18221;38.704;0.152;2024-03-08T10:09:42;1.83;;;0.90;;
10174;SDS011;18221;38.704;0.152;2024-03-08T10:12:15;1.53;;;1.00;;
10174;SDS011;18221;38.704;0.152;2024-03-08T10:14:45;1.50;;;1.30;;
10174;SDS011;18221;38.704;0.152;2024-03-08T10:17:13;2.07;;;1.17;;
10174;SDS011;18221;38.704;0.152;2024-03-08T10:19:49;4.07;;;1.67;;
10174;SDS011;18221;38.704;0.152;2024-03-08T10:22:18;2.60;;;1.20;;
10174;SDS011;18221;38.704;0.152;2024-03-08T10:24:47;1.37;;;1.00;;
10174;SDS011;18221;38.704;0.152;2024-03-08T10:27:16;2.17;;;1.00;;
10174;SDS011;18221;38.704;0.152;2024-03-08T10:29:46;2.63;;;1.00;;
10174;SDS011;18221;38.704;0.152;2024-03-08T10:32:17;2.63;;;1.10;;
10174;SDS011;18221;38.704;0.152;2024-03-08T10:34:45;1.70;;;0.97;;
10174;SDS011;18221;38.704;0.152;2024-03-08T10:37:15;2.50;;;1.00;;
10174;SDS011;18221;38.704;0.152;2024-03-08T10:39:55;2.47;;;1.10;;
10174;SDS011;18221;38.704;0.152;2024-03-08T10:42:35;0.97;;;0.83;;
10174;SDS011;18221;38.704;0.152;2024-03-08T10:45:10;2.47;;;1.07;;
10174;SDS011;18221;38.704;0.152;2024-03-08T10:47:48;2.17;;;1.23;;
10174;SDS011;18221;38.704;0.152;2024-03-08T10:50:31;6.87;;;1.40;;
10174;SDS011;18221;38.704;0.152;2024-03-08T10:53:10;4.57;;;1.50;;
10174;SDS011;18221;38.704;0.152;2024-03-08T10:55:42;3.03;;;1.30;;
10174;SDS011;18221;38.704;0.152;2024-03-08T10:58:13;1.30;;;1.10;;
10174;SDS011;18221;38.704;0.152;2024-03-08T11:00:44;4.33;;;1.40;;
10174;SDS011;18221;38.704;0.152;2024-03-08T11:06:18;3.03;;;1.20;;
10174;SDS011;18221;38.704;0.152;2024-03-08T11:08:57;2.13;;;1.00;;
10174;SDS011;18221;38.704;0.152;2024-03-08T11:11:28;2.60;;;1.07;;
10174;SDS011;18221;38.704;0.152;2024-03-08T11:13:59;2.00;;;1.10;;
10174;SDS011;18221;38.704;0.152;2024-03-08T11:16:39;2.53;;;1.20;;
10174;SDS011;18221;38.704;0.152;2024-03-08T11:19:23;1.87;;;1.13;;
10174;SDS011;18221;38.704;0.152;2024-03-08T11:21:57;2.23;;;1.23;;
10174;SDS011;18221;38.704;0.152;2024-03-08T11:24:27;3.77;;;1.23;;
10174;SDS011;18221;38.704;0.152;2024-03-08T11:27:04;1.13;;;1.03;;
10174;SDS011;18221;38.704;0.152;2024-03-08T11:29:37;1.47;;;1.10;;
10174;SDS011;18221;38.704;0.152;2024-03-08T11:32:08;1.80;;;1.00;;
10174;SDS011;18221;38.704;0.152;2024-03-08T11:34:37;4.23;;;1.20;;
10174;SDS011;18221;38.704;0.152;2024-03-08T11:37:12;1.70;;;1.10;;
10174;SDS011;18221;38.704;0.152;2024-03-08T11:39:46;2.93;;;1.10;;
10174;SDS011;18221;38.704;0.152;2024-03-08T11:42:16;4.20;;;1.30;;
10174;SDS011;18221;38.704;0.152;2024-03-08T11:44:45;3.10;;;1.30;;
10174;SDS011;18221;38.704;0.152;2024-03-08T11:47:13;3.77;;;1.30;;
10174;SDS011;18221;38.704;0.152;2024-03-08T11:49:41;2.13;;;0.93;;
10174;SDS011;18221;38.704;0.152;2024-03-08T11:52:12;4.33;;;1.23;;
10174;SDS011;18221;38.704;0.152;2024-03-08T11:54:41;1.73;;;0.90;;
10174;SDS011;18221;38.704;0.152;2024-03-08T11:57:21;1.80;;;1.00;;
10174;SDS011;18221;38.704;0.152;2024-03-08T11:59:50;3.70;;;1.33;;
10174;SDS011;18221;38.704;0.152;2024-03-08T12:02:18;2.60;;;1.20;;
10174;SDS011;18221;38.704;0.152;2024-03-08T12:04:46;2.50;;;1.33;;
10174;SDS011;18221;38.704;0.152;2024-03-08T12:07:15;2.83;;;1.17;;
10174;SDS011;18221;38.704;0.152;2024-03-08T12:09:44;1.57;;;0.90;;
10174;SDS011;18221;38.704;0.152;2024-03-08T12:12:45;2.30;;;1.37;;
10174;SDS011;18221;38.704;0.152;2024-03-08T12:15:15;2.50;;;1.20;;
10174;SDS011;18221;38.704;0.152;2024-03-08T12:17:44;1.43;;;1.10;;
10174;SDS011;18221;38.704;0.152;2024-03-08T12:20:16;1.63;;;1.07;;
10174;SDS011;18221;38.704;0.152;2024-03-08T12:22:48;4.47;;;1.27;;
10174;SDS011;18221;38.704;0.152;2024-03-08T12:25:19;2.50;;;1.00;;
10174;SDS011;18221;38.704;0.152;2024-03-08T12:27:49;5.00;;;1.20;;
10174;SDS011;18221;38.704;0.152;2024-03-08T12:30:18;2.23;;;1.20;;
10174;SDS011;18221;38.704;0.152;2024-03-08T12:32:53;2.83;;;1.30;;
10174;SDS011;18221;38.704;0.152;2024-03-08T12:35:23;2.20;;;1.17;;
10174;SDS011;18221;38.704;0.152;2024-03-08T12:37:53;4.97;;;1.30;;
10174;SDS011;18221;38.704;0.152;2024-03-08T12:40:26;3.40;;;1.07;;
10174;SDS011;18221;38.704;0.152;2024-03-08T12:42:58;3.53;;;1.30;;
10174;SDS011;18221;38.704;0.152;2024-03-08T12:45:27;1.93;;;1.20;;
10174;SDS011;18221;38.704;0.152;2024-03-08T12:47:55;2.93;;;1.40;;
10174;SDS011;18221;38.704;0.152;2024-03-08T12:50:24;1.90;;;1.20;;
10174;SDS011;18221;38.704;0.152;2024-03-08T12:52:52;2.43;;;1.17;;
10174;SDS011;18221;38.704;0.152;2024-03-08T12:55:21;2.77;;;1.30;;
10174;SDS011;18221;38.704;0.152;2024-03-08T12:58:00;3.60;;;1.27;;
10174;SDS011;18221;38.704;0.152;2024-03-08T13:00:27;3.27;;;1.13;;
10174;SDS011;18221;38.704;0.152;2024-03-08T13:02:55;3.57;;;1.20;;
10174;SDS011;18221;38.704;0.152;2024-03-08T13:05:24;3.60;;;1.27;;
10174;SDS011;18221;38.704;0.152;2024-03-08T13:07:52;4.07;;;1.30;;
10174;SDS011;18221;38.704;0.152;2024-03-08T13:10:21;3.03;;;1.30;;
10174;SDS011;18221;38.704;0.152;2024-03-08T13:12:48;3.83;;;1.50;;
10174;SDS011;18221;38.704;0.152;2024-03-08T13:15:19;1.63;;;1.10;;
10174;SDS011;18221;38.704;0.152;2024-03-08T13:17:49;8.63;;;1.53;;
10174;SDS011;18221;38.704;0.152;2024-03-08T13:20:17;2.97;;;1.30;;
10174;SDS011;18221;38.704;0.152;2024-03-08T13:22:45;2.23;;;1.30;;
10174;SDS011;18221;38.704;0.152;2024-03-08T13:25:13;4.00;;;1.17;;
10174;SDS011;18221;38.704;0.152;2024-03-08T13:27:41;3.10;;;1.30;;
10174;SDS011;18221;38.704;0.152;2024-03-08T13:30:11;4.30;;;1.57;;
10174;SDS011;18221;38.704;0.152;2024-03-08T13:32:45;7.03;;;1.60;;
10174;SDS011;18221;38.704;0.152;2024-03-08T13:35:13;7.70;;;1.57;;
10174;SDS011;18221;38.704;0.152;2024-03-08T13:37:49;5.67;;;1.40;;
10174;SDS011;18221;38.704;0.152;2024-03-08T13:40:18;5.03;;;1.40;;
10174;SDS011;18221;38.704;0.152;2024-03-08T13:42:46;6.23;;;1.40;;
10174;SDS011;18221;38.704;0.152;2024-03-08T13:45:15;5.50;;;1.23;;
10174;SDS011;18221;38.704;0.152;2024-03-08T13:47:49;4.37;;;1.43;;
10174;SDS011;18221;38.704;0.152;2024-03-08T13:50:17;5.93;;;1.60;;
10174;SDS011;18221;38.704;0.152;2024-03-08T13:52:46;4.20;;;1.83;;
10174;SDS011;18221;38.704;0.152;2024-03-08T13:55:16;5.57;;;2.17;;
10174;SDS011;18221;38.704;0.152;2024-03-08T13:57:44;5.37;;;1.80;;
10174;SDS011;18221;38.704;0.152;2024-03-08T14:00:14;6.33;;;1.47;;
10174;SDS011;18221;38.704;0.152;2024-03-08T14:02:43;5.33;;;1.50;;
10174;SDS011;18221;38.704;0.152;2024-03-08T14:05:12;4.97;;;1.60;;
10174;SDS011;18221;38.704;0.152;2024-03-08T14:07:41;7.63;;;1.90;;
10174;SDS011;18221;38.704;0.152;2024-03-08T14:10:11;5.33;;;1.30;;
10174;SDS011;18221;38.704;0.152;2024-03-08T14:12:39;5.73;;;1.50;;
10174;SDS011;18221;38.704;0.152;2024-03-08T14:15:08;7.00;;;1.73;;
10174;SDS011;18221;38.704;0.152;2024-03-08T14:17:38;6.50;;;1.57;;
10174;SDS011;18221;38.704;0.152;2024-03-08T14:20:06;6.83;;;1.40;;
10174;SDS011;18221;38.704;0.152;2024-03-08T14:22:39;11.00;;;2.20;;
10174;SDS011;18221;38.704;0.152;2024-03-08T14:25:09;12.30;;;1.90;;
10174;SDS011;18221;38.704;0.152;2024-03-08T14:27:42;7.53;;;1.40;;
10174;SDS011;18221;38.704;0.152;2024-03-08T14:30:10;5.63;;;1.40;;
10174;SDS011;18221;38.704;0.152;2024-03-08T14:32:57;6.40;;;1.80;;
10174;SDS011;18221;38.704;0.152;2024-03-08T14:35:25;8.47;;;2.00;;
10174;SDS011;18221;38.704;0.152;2024-03-08T14:37:56;8.50;;;2.17;;
10174;SDS011;18221;38.704;0.152;2024-03-08T14:40:25;8.77;;;2.37;;
10174;SDS011;18221;38.704;0.152;2024-03-08T14:42:55;6.80;;;2.20;;
10174;SDS011;18221;38.704;0.152;2024-03-08T14:45:23;4.80;;;1.90;;
10174;SDS011;18221;38.704;0.152;2024-03-08T14:47:51;4.63;;;1.83;;
10174;SDS011;18221;38.704;0.152;2024-03-08T14:50:20;8.00;;;2.20;;
10174;SDS011;18221;38.704;0.152;2024-03-08T14:52:49;5.03;;;1.57;;
10174;SDS011;18221;38.704;0.152;2024-03-08T14:55:20;7.93;;;2.00;;
10174;SDS011;18221;38.704;0.152;2024-03-08T14:57:48;10.47;;;2.23;;
10174;SDS011;18221;38.704;0.152;2024-03-08T15:00:17;7.10;;;2.20;;
10174;SDS011;18221;38.704;0.152;2024-03-08T15:02:58;8.50;;;2.13;;
10174;SDS011;18221;38.704;0.152;2024-03-08T15:05:27;9.43;;;2.30;;
10174;SDS011;18221;38.704;0.152;2024-03-08T15:07:57;7.93;;;2.27;;
10174;SDS011;18221;38.704;0.152;2024-03-08T15:10:29;6.23;;;1.93;;
10174;SDS011;18221;38.704;0.152;2024-03-08T15:12:58;11.40;;;2.57;;